Waco, Georgia
Current Conditions -  °F | °C
As of 8:35 PM on Thursday 27 Nov 2014 (Local Time) from KPUJ Reporting Station
Broken Clouds Broken Clouds  
Wind Chill: 29°   Ceiling: 3500
Heat Index: 37°   Visibility: 10mi
Dew Point: 30°   Wind: 14mph
Humidity: 75%   Direction: 330°NNW
Pressure: 30.35"   Gusts: NA
Location:  33.7°N, 85.18°W
Report Text: KPUJ 280135Z AUTO 33012KT 10SM BKN035 03/M01 A3035 RMK AO2
Loading
Personal Weather Stations






























Interactive Weather Map New forecast layout! Learn more

10-Day Weather Forecast

Advertisements
Track Severe Weather on mobile